createdAt,value
2022-11-10T00:02:28.377Z,1.20
2022-11-10T00:05:15.330Z,1.60
2022-11-10T00:08:03.617Z,1.20
2022-11-10T00:10:58.717Z,1.23
2022-11-10T00:14:02.757Z,1.00
2022-11-10T00:17:04.561Z,0.83
2022-11-10T00:19:50.836Z,0.90
2022-11-10T00:22:37.480Z,0.83
2022-11-10T00:25:23.653Z,0.77
2022-11-10T00:28:09.630Z,0.97
2022-11-10T00:30:57.036Z,0.80
2022-11-10T00:33:43.704Z,0.60
2022-11-10T00:36:30.265Z,0.67
2022-11-10T00:39:16.400Z,0.70
2022-11-10T00:42:02.293Z,0.70
2022-11-10T00:44:48.392Z,0.63
2022-11-10T00:47:35.614Z,0.70
2022-11-10T00:50:21.761Z,0.73
2022-11-10T00:53:07.953Z,0.90
2022-11-10T00:55:54.885Z,0.70
2022-11-10T00:58:41.202Z,0.90
2022-11-10T01:01:27.476Z,1.00
2022-11-10T01:04:14.855Z,1.10
2022-11-10T01:07:00.972Z,0.80
2022-11-10T01:09:46.801Z,0.80
2022-11-10T01:12:33.262Z,1.10
2022-11-10T01:15:25.977Z,0.77
2022-11-10T01:18:13.305Z,0.93
2022-11-10T01:21:00.834Z,0.70
2022-11-10T01:23:46.735Z,0.70
2022-11-10T01:26:32.768Z,0.80
2022-11-10T01:29:18.600Z,0.90
2022-11-10T01:32:04.759Z,1.00
2022-11-10T01:34:50.849Z,0.60
2022-11-10T01:37:38.086Z,0.80
2022-11-10T01:40:24.128Z,0.90
2022-11-10T01:43:10.988Z,0.77
2022-11-10T01:45:57.326Z,1.00
2022-11-10T01:48:45.149Z,0.80
2022-11-10T01:51:33.384Z,0.63
2022-11-10T01:54:23.129Z,0.60
2022-11-10T01:57:10.981Z,1.00
2022-11-10T01:59:57.324Z,1.00
2022-11-10T02:02:45.308Z,0.93
2022-11-10T02:05:31.745Z,0.93
2022-11-10T02:08:18.937Z,0.77
2022-11-10T02:11:06.332Z,0.90
2022-11-10T02:13:53.521Z,0.80
2022-11-10T02:16:40.255Z,0.73
2022-11-10T02:19:27.283Z,0.90
2022-11-10T02:22:14.772Z,0.80
2022-11-10T02:25:01.039Z,0.90
2022-11-10T02:27:47.132Z,0.90
2022-11-10T02:30:33.882Z,0.80
2022-11-10T02:33:20.321Z,0.80
2022-11-10T02:36:06.852Z,0.70
2022-11-10T02:38:54.540Z,0.80
2022-11-10T02:41:40.657Z,0.90
2022-11-10T02:44:26.917Z,0.70
2022-11-10T02:47:13.131Z,0.93
2022-11-10T02:49:58.925Z,0.93
2022-11-10T02:52:44.845Z,0.80
2022-11-10T02:55:32.153Z,0.80
2022-11-10T02:58:18.096Z,1.00
2022-11-10T03:01:06.717Z,1.10
2022-11-10T03:03:52.969Z,0.90
2022-11-10T03:06:38.942Z,0.90
2022-11-10T03:09:24.891Z,1.37
2022-11-10T03:12:12.065Z,1.50
2022-11-10T03:14:57.906Z,1.80
2022-11-10T03:17:44.404Z,1.30
2022-11-10T03:20:30.220Z,1.00
2022-11-10T03:23:16.703Z,1.20
2022-11-10T03:26:04.708Z,1.10
2022-11-10T03:28:51.911Z,0.73
2022-11-10T03:31:37.700Z,0.80
2022-11-10T03:34:26.977Z,1.27
2022-11-10T03:37:15.569Z,0.60
2022-11-10T03:40:02.000Z,1.00
2022-11-10T03:42:47.986Z,0.90
2022-11-10T03:45:35.262Z,1.13
2022-11-10T03:48:21.336Z,0.60
2022-11-10T03:51:07.529Z,1.07
2022-11-10T03:53:53.817Z,0.90
2022-11-10T03:56:39.992Z,0.60
2022-11-10T03:59:25.977Z,0.90
2022-11-10T04:02:13.517Z,0.80
2022-11-10T04:05:17.192Z,0.93
2022-11-10T04:08:20.754Z,1.00
2022-11-10T04:11:07.000Z,0.80
2022-11-10T04:14:18.694Z,1.07
2022-11-10T04:17:05.341Z,0.90
2022-11-10T04:19:52.710Z,0.90
2022-11-10T04:22:56.680Z,0.90
2022-11-10T04:26:05.259Z,1.00
2022-11-10T04:28:51.725Z,0.80
2022-11-10T04:31:39.342Z,0.87
2022-11-10T04:34:25.431Z,0.77
2022-11-10T04:37:12.706Z,1.00
2022-11-10T04:39:58.606Z,1.13
2022-11-10T04:42:44.476Z,0.93
2022-11-10T04:45:30.510Z,1.37
2022-11-10T04:48:16.356Z,0.80
2022-11-10T04:51:03.971Z,1.13
2022-11-10T04:53:51.334Z,1.10
2022-11-10T04:56:37.917Z,0.90
2022-11-10T04:59:23.742Z,0.90
2022-11-10T05:02:09.711Z,1.17
2022-11-10T05:04:55.827Z,0.90
2022-11-10T05:07:42.056Z,1.10
2022-11-10T05:10:29.467Z,1.40
2022-11-10T05:13:15.394Z,1.00
2022-11-10T05:16:01.290Z,0.70
2022-11-10T05:18:47.162Z,0.90
2022-11-10T05:21:34.053Z,1.00
2022-11-10T05:24:19.951Z,0.80
2022-11-10T05:27:08.361Z,1.10
2022-11-10T05:29:54.555Z,1.10
2022-11-10T05:32:40.750Z,1.37
2022-11-10T05:35:27.020Z,1.10
2022-11-10T05:38:12.845Z,1.40
2022-11-10T05:40:58.845Z,1.20
2022-11-10T05:43:46.105Z,1.40
2022-11-10T05:46:32.063Z,1.30
2022-11-10T05:49:18.245Z,1.20
2022-11-10T05:52:04.597Z,1.10
2022-11-10T05:54:50.453Z,1.00
2022-11-10T05:57:36.621Z,1.30
2022-11-10T06:00:25.597Z,1.47
2022-11-10T06:03:14.336Z,1.40
2022-11-10T06:06:00.268Z,1.23
2022-11-10T06:08:46.232Z,1.40
2022-11-10T06:11:32.171Z,1.43
2022-11-10T06:14:18.110Z,1.50
2022-11-10T06:17:05.619Z,1.50
2022-11-10T06:19:51.448Z,1.87
2022-11-10T06:22:37.607Z,1.23
2022-11-10T06:25:24.393Z,1.60
2022-11-10T06:28:11.016Z,1.70
2022-11-10T06:30:58.043Z,1.60
2022-11-10T06:33:45.501Z,1.67
2022-11-10T06:36:31.695Z,1.50
2022-11-10T06:39:18.131Z,1.30
2022-11-10T06:42:04.059Z,1.87
2022-11-10T06:44:49.991Z,1.77
2022-11-10T06:47:36.137Z,1.60
2022-11-10T06:50:23.610Z,1.17
2022-11-10T06:53:10.410Z,1.20
2022-11-10T06:55:56.576Z,1.57
2022-11-10T06:58:42.433Z,1.27
2022-11-10T07:01:28.409Z,1.20
2022-11-10T07:04:20.365Z,1.30
2022-11-10T07:07:08.817Z,1.00
2022-11-10T07:09:55.040Z,1.33
2022-11-10T07:12:40.833Z,1.50
2022-11-10T07:15:27.223Z,1.20
2022-11-10T07:18:13.444Z,1.50
2022-11-10T07:20:59.346Z,1.40
2022-11-10T07:23:47.223Z,1.10
2022-11-10T07:26:32.988Z,1.10
2022-11-10T07:29:19.117Z,1.30
2022-11-10T07:32:05.409Z,1.50
2022-11-10T07:34:51.313Z,1.00
2022-11-10T07:37:37.318Z,1.47
2022-11-10T07:40:24.977Z,1.40
2022-11-10T07:43:11.139Z,1.00
2022-11-10T07:45:57.638Z,1.17
2022-11-10T07:48:43.489Z,1.30
2022-11-10T07:51:30.737Z,1.60
2022-11-10T07:54:16.992Z,1.20
2022-11-10T07:57:04.118Z,0.97
2022-11-10T07:59:52.878Z,1.20
2022-11-10T08:02:41.719Z,1.20
2022-11-10T08:05:28.126Z,1.03
2022-11-10T08:08:14.391Z,1.03
2022-11-10T08:11:00.625Z,1.40
2022-11-10T08:13:48.113Z,1.47
2022-11-10T08:16:34.217Z,1.67
2022-11-10T08:19:20.167Z,1.03
2022-11-10T08:22:06.275Z,1.13
2022-11-10T08:24:52.140Z,1.23
2022-11-10T08:27:37.985Z,1.10
2022-11-10T08:30:25.447Z,1.17
2022-11-10T08:33:12.913Z,1.00
2022-11-10T08:36:01.513Z,1.10
2022-11-10T08:38:47.476Z,1.10
2022-11-10T08:41:33.573Z,1.07
2022-11-10T08:44:20.961Z,1.00
2022-11-10T08:47:08.776Z,1.10
2022-11-10T08:49:54.533Z,1.20
2022-11-10T08:52:40.363Z,1.20
2022-11-10T08:55:26.443Z,0.70
2022-11-10T08:58:12.887Z,1.00
2022-11-10T09:00:59.220Z,1.17
2022-11-10T09:03:46.502Z,1.10
2022-11-10T09:06:32.344Z,0.67
2022-11-10T09:09:18.741Z,1.20
2022-11-10T09:12:04.779Z,1.33
2022-11-10T09:14:50.525Z,1.10
2022-11-10T09:17:36.589Z,1.03
2022-11-10T09:20:23.866Z,1.20
2022-11-10T09:23:10.486Z,1.10
2022-11-10T09:25:57.277Z,1.20
2022-11-10T09:28:43.087Z,1.00
2022-11-10T09:31:29.039Z,1.10
2022-11-10T09:34:15.509Z,1.30
2022-11-10T09:37:02.614Z,1.30
2022-11-10T09:39:48.708Z,1.27
2022-11-10T09:42:37.399Z,1.30
2022-11-10T09:45:25.377Z,1.27
2022-11-10T09:48:16.869Z,1.30
2022-11-10T09:51:04.098Z,1.30
2022-11-10T09:53:52.593Z,1.40
2022-11-10T09:56:38.703Z,1.33
2022-11-10T09:59:26.412Z,1.50
2022-11-10T10:02:19.059Z,1.47
2022-11-10T10:05:11.955Z,1.43
2022-11-10T10:08:01.373Z,1.80
2022-11-10T10:10:52.497Z,1.30
2022-11-10T10:13:47.227Z,1.30
2022-11-10T10:16:37.203Z,1.27
2022-11-10T10:19:28.447Z,1.13
2022-11-10T10:22:24.464Z,1.10
2022-11-10T10:25:12.873Z,1.23
2022-11-10T10:28:02.503Z,1.60
2022-11-10T10:30:48.371Z,1.93
2022-11-10T10:33:34.589Z,1.13
2022-11-10T10:36:27.958Z,1.17
2022-11-10T10:39:15.952Z,1.40
2022-11-10T10:42:03.151Z,1.33
2022-11-10T10:45:04.254Z,1.30
2022-11-10T10:47:52.716Z,1.20
2022-11-10T10:50:43.629Z,1.50
2022-11-10T10:53:29.760Z,1.10
2022-11-10T10:56:18.476Z,1.10
2022-11-10T10:59:05.955Z,1.30
2022-11-10T11:01:54.440Z,1.30
2022-11-10T11:04:42.311Z,1.43
2022-11-10T11:07:28.255Z,1.17
2022-11-10T11:10:22.373Z,0.93
2022-11-10T11:13:14.568Z,1.00
2022-11-10T11:16:01.535Z,1.00
2022-11-10T11:18:47.256Z,0.97
2022-11-10T11:21:35.899Z,1.17
2022-11-10T11:24:28.870Z,0.90
2022-11-10T11:27:18.399Z,1.20
2022-11-10T11:30:10.041Z,1.00
2022-11-10T11:33:16.939Z,0.87
2022-11-10T11:36:07.706Z,1.20
2022-11-10T11:38:59.455Z,1.07
2022-11-10T11:41:49.601Z,1.10
2022-11-10T11:44:44.103Z,1.07
2022-11-10T11:47:36.775Z,1.20
2022-11-10T11:50:28.035Z,1.10
2022-11-10T11:53:20.035Z,1.10
2022-11-10T11:56:14.757Z,1.37
2022-11-10T11:59:08.179Z,1.00
2022-11-10T12:02:01.954Z,1.03
2022-11-10T12:04:52.509Z,0.90
2022-11-10T12:07:45.237Z,1.33
2022-11-10T12:10:42.832Z,1.20
2022-11-10T12:13:48.041Z,0.90
2022-11-10T12:16:35.687Z,1.00
2022-11-10T12:19:26.580Z,0.97
2022-11-10T12:22:17.809Z,1.43
2022-11-10T12:25:14.488Z,1.17
2022-11-10T12:28:10.593Z,0.90
2022-11-10T12:31:02.111Z,0.90
2022-11-10T12:33:50.212Z,1.00
2022-11-10T12:36:36.487Z,1.20
2022-11-10T12:39:24.166Z,1.10
2022-11-10T12:42:13.823Z,1.00
2022-11-10T12:45:01.637Z,0.90
2022-11-10T12:47:49.277Z,0.90
2022-11-10T12:50:38.763Z,1.20
2022-11-10T12:53:25.897Z,1.00
2022-11-10T12:56:15.813Z,0.90
2022-11-10T12:59:24.367Z,0.67
2022-11-10T13:02:19.444Z,0.80
2022-11-10T13:05:20.335Z,0.83
2022-11-10T13:08:16.261Z,1.03
2022-11-10T13:11:04.451Z,1.03
2022-11-10T13:13:58.278Z,1.10
2022-11-10T13:16:51.847Z,1.00
2022-11-10T13:19:51.441Z,1.00
2022-11-10T13:22:40.861Z,0.90
2022-11-10T13:25:43.591Z,1.03
2022-11-10T13:28:48.269Z,1.23
2022-11-10T13:31:52.193Z,1.00
2022-11-10T13:34:38.696Z,1.20
2022-11-10T13:37:50.216Z,1.30
2022-11-10T13:40:37.369Z,0.97
2022-11-10T13:43:24.827Z,0.90
2022-11-10T13:46:10.837Z,1.10
2022-11-10T13:49:14.342Z,1.57
2022-11-10T13:52:06.963Z,1.07
2022-11-10T13:55:02.047Z,1.40
2022-11-10T13:57:58.085Z,0.90
2022-11-10T14:00:49.029Z,1.17
2022-11-10T14:03:57.341Z,3.20
2022-11-10T14:06:46.244Z,3.40
2022-11-10T14:09:33.466Z,1.57
2022-11-10T14:12:25.786Z,1.00
2022-11-10T14:15:15.940Z,1.40
2022-11-10T14:18:02.123Z,1.00
2022-11-10T14:20:49.026Z,1.40
2022-11-10T14:23:37.260Z,1.30
2022-11-10T14:26:25.625Z,1.10
2022-11-10T14:29:35.919Z,1.83
2022-11-10T14:32:24.748Z,1.33
2022-11-10T14:35:18.886Z,1.37
2022-11-10T14:38:07.093Z,1.50
2022-11-10T14:40:54.728Z,1.17
2022-11-10T14:43:40.824Z,0.90
2022-11-10T14:46:26.971Z,1.10
2022-11-10T14:49:14.319Z,1.20
2022-11-10T14:52:00.394Z,1.60
2022-11-10T14:54:47.487Z,1.23
2022-11-10T14:57:33.276Z,1.53
2022-11-10T15:00:20.461Z,1.63
2022-11-10T15:03:07.367Z,1.50
2022-11-10T15:05:55.354Z,1.10
2022-11-10T15:08:42.066Z,1.13
2022-11-10T15:11:35.123Z,1.60
2022-11-10T15:14:38.154Z,1.60
2022-11-10T15:17:43.547Z,1.47
2022-11-10T15:20:30.675Z,1.50
2022-11-10T15:23:21.874Z,1.57
2022-11-10T15:26:14.985Z,1.57
2022-11-10T15:29:00.996Z,1.40
2022-11-10T15:31:46.963Z,1.47
2022-11-10T15:34:41.248Z,1.80
2022-11-10T15:37:30.922Z,1.63
2022-11-10T15:40:31.658Z,1.50
2022-11-10T15:43:26.964Z,1.90
2022-11-10T15:46:18.144Z,1.73
2022-11-10T15:49:04.680Z,1.50
2022-11-10T15:51:52.157Z,1.70
2022-11-10T15:54:38.413Z,0.93
2022-11-10T15:57:26.034Z,2.27
2022-11-10T16:00:13.486Z,2.13
2022-11-10T16:02:59.659Z,1.93
2022-11-10T16:05:46.001Z,1.80
2022-11-10T16:08:34.514Z,2.50
2022-11-10T16:11:21.200Z,1.80
2022-11-10T16:14:11.771Z,4.83
2022-11-10T16:16:57.622Z,2.50
2022-11-10T16:19:43.517Z,2.37
2022-11-10T16:22:29.736Z,2.17
2022-11-10T16:25:22.672Z,2.47
2022-11-10T16:28:11.844Z,2.23
2022-11-10T16:30:59.399Z,2.67
2022-11-10T16:33:46.559Z,3.47
2022-11-10T16:36:34.427Z,2.67
2022-11-10T16:39:20.772Z,1.97
2022-11-10T16:42:06.896Z,2.77
2022-11-10T16:44:52.733Z,2.40
2022-11-10T16:47:40.224Z,2.80
2022-11-10T16:50:36.165Z,2.17
2022-11-10T16:53:22.948Z,2.37
2022-11-10T16:56:13.378Z,2.30
2022-11-10T16:58:59.505Z,2.50
2022-11-10T17:01:46.848Z,2.90
2022-11-10T17:04:34.098Z,2.60
2022-11-10T17:07:21.461Z,2.40
2022-11-10T17:10:14.234Z,2.63
2022-11-10T17:13:00.198Z,3.10
2022-11-10T17:15:47.183Z,2.63
2022-11-10T17:18:34.225Z,2.03
2022-11-10T17:21:22.572Z,2.23
2022-11-10T17:24:11.329Z,2.40
2022-11-10T17:26:57.759Z,2.40
2022-11-10T17:29:43.806Z,2.03
2022-11-10T17:33:02.552Z,2.30
2022-11-10T17:35:40.561Z,2.57
2022-11-10T17:38:29.212Z,2.10
2022-11-10T17:41:16.928Z,2.03
2022-11-10T17:44:02.957Z,2.07
2022-11-10T17:46:49.156Z,2.23
2022-11-10T17:49:35.210Z,2.00
2022-11-10T17:52:21.137Z,2.03
2022-11-10T17:55:08.832Z,2.17
2022-11-10T17:57:54.997Z,2.07
2022-11-10T18:00:41.257Z,2.03
2022-11-10T18:03:27.381Z,2.10
2022-11-10T18:06:16.366Z,2.13
2022-11-10T18:09:02.548Z,2.97
2022-11-10T18:11:50.197Z,2.77
2022-11-10T18:14:36.083Z,2.40
2022-11-10T18:17:22.205Z,3.17
2022-11-10T18:20:08.524Z,3.87
2022-11-10T18:22:54.800Z,3.67
2022-11-10T18:25:41.027Z,4.37
2022-11-10T18:28:28.414Z,3.63
2022-11-10T18:31:14.851Z,2.83
2022-11-10T18:34:00.776Z,3.63
2022-11-10T18:36:46.727Z,3.87
2022-11-10T18:39:32.757Z,5.50
2022-11-10T18:42:18.620Z,6.13
2022-11-10T18:45:06.475Z,6.37
2022-11-10T18:47:52.734Z,4.57
2022-11-10T18:50:38.609Z,3.00
2022-11-10T18:53:25.222Z,2.13
2022-11-10T18:56:11.714Z,2.43
2022-11-10T18:58:57.717Z,2.10
2022-11-10T19:01:44.987Z,3.17
2022-11-10T19:04:31.149Z,3.07
2022-11-10T19:07:17.202Z,2.57
2022-11-10T19:10:03.213Z,3.10
2022-11-10T19:12:49.029Z,2.60
2022-11-10T19:15:40.115Z,2.50
2022-11-10T19:18:27.272Z,3.03
2022-11-10T19:21:14.458Z,2.50
2022-11-10T19:24:00.584Z,2.60
2022-11-10T19:26:46.810Z,3.00
2022-11-10T19:29:32.945Z,3.00
2022-11-10T19:32:24.511Z,3.23
2022-11-10T19:35:13.363Z,3.17
2022-11-10T19:37:59.544Z,3.60
2022-11-10T19:40:45.923Z,2.00
2022-11-10T19:43:32.119Z,2.23
2022-11-10T19:46:19.405Z,1.97
2022-11-10T19:49:06.248Z,1.73
2022-11-10T19:51:54.198Z,1.93
2022-11-10T19:54:39.986Z,2.03
2022-11-10T19:57:26.446Z,1.70
2022-11-10T20:00:13.068Z,2.73
2022-11-10T20:02:59.367Z,2.70
2022-11-10T20:05:46.573Z,2.30
2022-11-10T20:08:34.096Z,2.43
2022-11-10T20:11:22.003Z,3.47
2022-11-10T20:14:08.348Z,3.13
2022-11-10T20:16:54.405Z,3.10
2022-11-10T20:19:41.341Z,3.13
2022-11-10T20:22:27.984Z,3.57
2022-11-10T20:25:15.510Z,3.37
2022-11-10T20:28:03.430Z,4.77
2022-11-10T20:30:49.627Z,12.77
2022-11-10T20:33:36.167Z,7.77
2022-11-10T20:36:23.444Z,9.53
2022-11-10T20:39:09.353Z,9.23
2022-11-10T20:41:56.820Z,3.10
2022-11-10T20:44:42.693Z,2.50
2022-11-10T20:47:29.246Z,2.27
2022-11-10T20:50:19.184Z,2.40
2022-11-10T20:53:07.877Z,2.07
2022-11-10T20:55:57.665Z,2.40
2022-11-10T20:58:45.581Z,2.30
2022-11-10T21:01:32.456Z,1.90
2022-11-10T21:04:19.129Z,1.90
2022-11-10T21:07:05.276Z,2.50
2022-11-10T21:09:51.656Z,1.83
2022-11-10T21:12:52.722Z,2.07
2022-11-10T21:15:40.794Z,2.20
2022-11-10T21:18:28.617Z,2.00
2022-11-10T21:21:20.181Z,2.87
2022-11-10T21:24:07.561Z,1.83
2022-11-10T21:26:53.722Z,2.00
2022-11-10T21:29:39.931Z,2.03
2022-11-10T21:32:27.408Z,2.30
2022-11-10T21:35:13.594Z,2.57
2022-11-10T21:37:59.584Z,2.50
2022-11-10T21:40:45.832Z,2.33
2022-11-10T21:43:32.092Z,2.90
2022-11-10T21:46:18.533Z,2.70
2022-11-10T21:49:07.857Z,2.93
2022-11-10T21:51:54.012Z,2.93
2022-11-10T21:54:39.966Z,2.97
2022-11-10T21:57:25.935Z,2.10
2022-11-10T22:00:12.847Z,1.80
2022-11-10T22:02:59.259Z,1.90
2022-11-10T22:05:46.662Z,1.87
2022-11-10T22:08:32.762Z,1.80
2022-11-10T22:11:37.256Z,1.77
2022-11-10T22:14:40.973Z,2.10
2022-11-10T22:17:44.781Z,2.17
2022-11-10T22:20:30.819Z,2.30
2022-11-10T22:23:18.529Z,1.83
2022-11-10T22:26:04.702Z,2.53
2022-11-10T22:28:50.499Z,2.30
2022-11-10T22:31:36.669Z,2.37
2022-11-10T22:34:22.721Z,2.20
2022-11-10T22:37:08.785Z,1.70
2022-11-10T22:40:13.578Z,1.90
2022-11-10T22:43:17.427Z,1.73
2022-11-10T22:46:03.873Z,2.30
2022-11-10T22:48:50.032Z,2.10
2022-11-10T22:51:36.677Z,2.00
2022-11-10T22:54:24.340Z,2.23
2022-11-10T22:57:11.949Z,2.37
2022-11-10T22:59:58.245Z,2.53
2022-11-10T23:02:44.059Z,3.13
2022-11-10T23:05:30.391Z,3.27
2022-11-10T23:08:16.569Z,2.50
2022-11-10T23:11:03.249Z,3.60
2022-11-10T23:13:50.855Z,3.93
2022-11-10T23:16:37.097Z,3.67
2022-11-10T23:19:23.077Z,3.40
2022-11-10T23:22:08.949Z,2.40
2022-11-10T23:24:57.346Z,3.10
2022-11-10T23:27:43.629Z,2.57
2022-11-10T23:30:30.876Z,2.50
2022-11-10T23:33:17.100Z,2.03
2022-11-10T23:36:03.023Z,2.33
2022-11-10T23:38:49.265Z,1.90
2022-11-10T23:41:35.269Z,1.60
2022-11-10T23:44:21.740Z,1.40
2022-11-10T23:47:09.253Z,1.60
2022-11-10T23:49:55.301Z,1.77
2022-11-10T23:52:41.317Z,1.37
2022-11-10T23:55:27.857Z,1.73
2022-11-10T23:58:13.729Z,1.70
